Impacts METAR Board
IDs:

KPWG - Mc Gregor Executive, TX, US

Updated at: 1400 UTC 20 Oct 2021
Potential Impact None Slight Moderate High
Time 20/02Z 20/03Z 20/04Z 20/05Z 20/06Z 20/07Z 20/08Z 20/09Z 20/10Z 20/11Z 20/12Z 20/13Z 20/14Z
Temp71 68 68 66 66 67 66 66 67 67 67 69
Dewpt59 60 60 61 63 64 64 64 65 65 65 66
Altim30.02 30.03 30.04 30.05 30.07 30.07 30.08 30.08 30.09 30.09 30.10 30.12
VIS10 10 10 8 10 10 10 10 10 10 10 10
CIG-- -- -- -- -- 12 15 27 27 8 30 36
CoverCLRCLRCLRCLRCLROVCOVCOVCOVCOVCOVCOVC
FltCatVFRVFRVFRVFRVFRMVFRMVFRMVFRMVFRIFRMVFRVFR
WX------------------------
WDir140150160150170160190180200180150180
WSpd7 7 8 8 10 7 5 5 4 7 7 5
WGst-- -- -- -- -- -- -- -- -- -- -- --
Raw hourly METARs
KPWG 200156Z AUTO 14007KT 10SM CLR 22/15 A3002 RMK AO2 SLP160 T02170150
KPWG 200256Z AUTO 15007KT 10SM CLR 20/16 A3003 RMK AO2 SLP165 T02000156 52011
KPWG 200356Z AUTO 16008KT 10SM CLR 20/16 A3004 RMK AO2 SLP167 T02000156
KPWG 200456Z AUTO 15008KT 8SM CLR 19/16 A3005 RMK AO2 SLP171 T01890161

KPWG 200656Z AUTO 17010KT 10SM CLR 19/17 A3007 RMK AO2 SLP175 T01890172
KPWG 200756Z AUTO 16007KT 10SM OVC012 19/18 A3007 RMK AO2 SLP177 T01940178
KPWG 200856Z AUTO 19005KT 10SM SCT010 OVC015 19/18 A3008 RMK AO2 SLP180 T01890178 53006
KPWG 200956Z AUTO 18005KT 10SM SCT019 OVC027 19/18 A3008 RMK AO2 SLP180 T01890178
KPWG 201056Z AUTO 20004KT 10SM BKN027 OVC032 19/18 A3009 RMK AO2 SLP184 T01940183
KPWG 201156Z AUTO 18007KT 10SM OVC008 19/18 A3009 RMK AO2 SLP186 T01940183 10200 20189 53005
KPWG 201256Z AUTO 15007KT 10SM FEW024 OVC030 19/18 A3010 RMK AO2 SLP186 T01940183
KPWG 201356Z AUTO 18005KT 10SM OVC036 21/19 A3012 RMK AO2 SLP194 T02060189